Time;durP1;ratioP1;P1;durP2;ratioP2;P2;SDS_P1;SDS_P2;PMS_P1;PMS_P2;Temp;Humidity;BMP_temperature;BMP_pressure;BME280_temperature;BME280_humidity;BME280_pressure;Samples;Min_cycle;Max_cycle;Signal;HPM_P1;HPM_P2
2022/09/09 00:02:59;;;;;;;;;21.67;19.67;;;;;;;;6487941;39;8916;-62
2022/09/09 00:09:15;;;;;;;;;21.67;18.67;;;;;;;;6488704;47;9057;-61
2022/09/09 00:15:42;;;;;;;;;17.33;15.67;;;;;;;;6488668;39;8893;-61
2022/09/09 00:22:05;;;;;;;;;17.67;17.67;;;;;;;;6488452;47;8920;-61
2022/09/09 00:28:20;;;;;;;;;20.67;18.00;;;;;;;;6488539;47;8868;-62
2022/09/09 00:34:28;;;;;;;;;19.33;18.67;;;;;;;;6488242;39;9463;-61
2022/09/09 00:40:39;;;;;;;;;20.00;17.67;;;;;;;;6488728;39;8864;-61
2022/09/09 00:47:30;;;;;;;;;17.00;17.00;;;;;;;;6488312;39;8932;-62
2022/09/09 00:53:56;;;;;;;;;18.67;17.00;;;;;;;;6488287;31;8920;-60
2022/09/09 01:00:35;;;;;;;;;19.00;19.00;;;;;;;;6489455;39;8955;-62
2022/09/09 01:06:38;;;;;;;;;15.00;15.00;;;;;;;;6487596;39;8864;-62
2022/09/09 01:12:47;;;;;;;;;23.67;23.33;;;;;;;;6488886;31;8872;-60
2022/09/09 01:18:55;;;;;;;;;25.00;19.67;;;;;;;;6490067;31;9584;-62
2022/09/09 01:25:29;;;;;;;;;21.33;19.33;;;;;;;;6489806;31;9039;-62
2022/09/09 01:31:58;;;;;;;;;19.33;18.67;;;;;;;;6489509;39;8941;-62
2022/09/09 01:38:05;;;;;;;;;24.67;24.33;;;;;;;;6489766;39;8876;-62
2022/09/09 01:44:18;;;;;;;;;25.00;24.00;;;;;;;;6490033;31;8983;-62
2022/09/09 01:50:26;;;;;;;;;27.00;27.00;;;;;;;;6489696;39;8947;-61
2022/09/09 01:56:50;;;;;;;;;26.00;24.67;;;;;;;;6489249;46;8876;-62
2022/09/09 02:03:04;;;;;;;;;26.00;23.67;;;;;;;;6489425;31;8916;-62
2022/09/09 02:09:25;;;;;;;;;27.00;25.00;;;;;;;;6489476;39;8975;-61
2022/09/09 02:16:00;;;;;;;;;29.33;29.00;;;;;;;;6488894;46;8883;-61
2022/09/09 02:22:04;;;;;;;;;32.00;30.00;;;;;;;;6489577;31;8869;-61
2022/09/09 02:28:09;;;;;;;;;32.67;30.67;;;;;;;;6489438;31;8907;-61
2022/09/09 02:34:16;;;;;;;;;25.33;25.33;;;;;;;;6488315;39;9003;-62
2022/09/09 02:40:23;;;;;;;;;28.33;27.33;;;;;;;;6488676;31;9032;-61
2022/09/09 02:46:54;;;;;;;;;31.67;30.67;;;;;;;;6489536;39;8964;-62
2022/09/09 02:53:02;;;;;;;;;30.67;30.67;;;;;;;;6489834;31;8860;-62
2022/09/09 02:59:07;;;;;;;;;34.33;28.00;;;;;;;;6488217;46;8964;-61
2022/09/09 03:05:12;;;;;;;;;29.67;28.33;;;;;;;;6489120;39;8971;-60
2022/09/09 03:11:17;;;;;;;;;33.67;30.00;;;;;;;;6488941;31;8932;-61
2022/09/09 03:17:20;;;;;;;;;29.00;26.67;;;;;;;;6489470;31;8971;-63
2022/09/09 03:23:31;;;;;;;;;34.00;29.00;;;;;;;;6489013;46;9024;-62
2022/09/09 03:29:42;;;;;;;;;29.67;28.33;;;;;;;;6488490;46;9028;-63
2022/09/09 03:35:50;;;;;;;;;30.50;27.50;;;;;;;;6488275;46;8892;-62
2022/09/09 03:41:57;;;;;;;;;26.33;26.33;;;;;;;;6487912;46;8979;-61
2022/09/09 03:48:11;;;;;;;;;28.33;28.00;;;;;;;;6488655;31;8912;-62
2022/09/09 03:54:21;;;;;;;;;32.33;28.33;;;;;;;;6488998;31;8919;-62
2022/09/09 04:07:09;;;;;;;;;28.33;27.00;;;;;;;;6479042;39;9072;-62
2022/09/09 04:13:17;;;;;;;;;26.00;24.00;;;;;;;;6489461;47;8887;-61
